Time;durP1;ratioP1;P1;durP2;ratioP2;P2;SDS_P1;SDS_P2;PMS_P1;PMS_P2;Temp;Humidity;BMP_temperature;BMP_pressure;BME280_temperature;BME280_humidity;BME280_pressure;Samples;Min_cycle;Max_cycle;Signal;HPM_P1;HPM_P2
2021/11/20 00:01:25;;;;;;;;;13.67;11.00;;;;;-147.17;100.00;50062.53;5021172;28;52931;-68
2021/11/20 00:03:50;;;;;;;;;8.00;8.00;;;;;-147.17;100.00;50046.78;5020137;28;51346;-73
2021/11/20 00:06:23;;;;;;;;;12.00;12.00;;;;;-147.17;100.00;50044.81;5025700;28;51517;-67
2021/11/20 00:08:49;;;;;;;;;14.50;12.50;;;;;-147.17;100.00;50052.69;5021705;28;51739;-69
2021/11/20 00:11:17;;;;;;;;;13.50;11.75;;;;;-147.17;100.00;50068.44;5025378;28;54309;-69
2021/11/20 00:13:44;;;;;;;;;15.50;12.00;;;;;-147.17;100.00;50044.81;5021536;28;51314;-68
2021/11/20 00:16:11;;;;;;;;;14.25;12.50;;;;;-147.17;100.00;50060.56;5023779;28;51468;-69
2021/11/20 00:18:38;;;;;;;;;15.75;14.75;;;;;-147.17;100.00;50046.78;5020008;28;51363;-66
2021/11/20 00:21:10;;;;;;;;;12.67;11.67;;;;;-147.17;100.00;49865.69;5036881;28;51715;-57
2021/11/20 00:23:39;;;;;;;;;11.00;10.00;;;;;-147.17;100.00;49784.97;5021378;28;51285;-62
2021/11/20 00:26:07;;;;;;;;;10.25;8.75;;;;;-147.17;100.00;49729.88;5021851;28;51299;-61
2021/11/20 00:28:54;;;;;;;;;14.00;14.00;;;;;-147.17;100.00;49741.69;5025667;28;51381;-63
2021/11/20 00:31:21;;;;;;;;;11.00;10.50;;;;;-147.17;100.00;49692.47;5017238;28;51898;-63
2021/11/20 00:33:47;;;;;;;;;11.50;11.50;;;;;-147.17;100.00;49702.31;5019013;28;51275;-61
2021/11/20 00:36:13;;;;;;;;;10.75;10.25;;;;;-147.17;100.00;49757.44;5021555;28;51292;-61
2021/11/20 00:38:39;;;;;;;;;12.25;11.25;;;;;-147.17;100.00;49725.94;5021249;28;51226;-61
2021/11/20 00:41:11;;;;;;;;;10.75;10.00;;;;;-147.17;100.00;49694.44;5022055;28;51184;-61
2021/11/20 00:43:39;;;;;;;;;10.75;10.00;;;;;-147.17;100.00;49690.50;5023446;28;51225;-62
2021/11/20 00:46:05;;;;;;;;;11.00;11.00;;;;;-147.17;100.00;49751.53;5022451;28;51373;-59
2021/11/20 00:48:31;;;;;;;;;8.00;7.00;;;;;-147.17;100.00;49745.63;5022477;28;51663;-61
2021/11/20 00:51:01;;;;;;;;;13.50;11.25;;;;;-147.17;100.00;49710.19;5021639;28;51723;-60
2021/11/20 00:53:27;;;;;;;;;10.50;9.75;;;;;-147.17;100.00;49674.75;5023752;28;51208;-60
2021/11/20 00:55:54;;;;;;;;;9.00;9.00;;;;;-147.17;100.00;49694.44;5021427;28;51249;-61
2021/11/20 00:58:20;;;;;;;;;13.75;12.25;;;;;-147.17;100.00;49694.44;5020638;28;51734;-60
2021/11/20 01:00:50;;;;;;;;;14.00;12.00;;;;;-147.17;100.00;49678.69;5020740;28;51124;-60
2021/11/20 01:03:16;;;;;;;;;9.50;7.50;;;;;-147.17;100.00;49662.94;5019717;28;51097;-60
2021/11/20 01:05:42;;;;;;;;;11.25;10.50;;;;;-147.17;100.00;49664.91;5017630;28;51114;-60
2021/11/20 01:08:11;;;;;;;;;12.25;10.25;;;;;-147.17;100.00;49718.06;5021633;28;51260;-60
2021/11/20 01:10:41;;;;;;;;;12.75;11.50;;;;;-147.17;100.00;49692.47;5017532;28;51255;-60
2021/11/20 01:13:07;;;;;;;;;11.50;11.50;;;;;-147.17;100.00;49672.78;5021602;28;51066;-60
2021/11/20 01:15:38;;;;;;;;;12.75;10.75;;;;;-147.17;100.00;49688.53;5019902;28;51173;-60
2021/11/20 01:18:05;;;;;;;;;15.50;15.50;;;;;-147.17;100.00;49684.59;5022484;28;51098;-59
2021/11/20 01:20:31;;;;;;;;;13.25;12.50;;;;;-147.17;100.00;49682.63;5020434;28;51766;-59
2021/11/20 01:22:57;;;;;;;;;14.75;14.25;;;;;-147.17;100.00;49662.94;5022916;28;51312;-63
2021/11/20 01:25:24;;;;;;;;;11.50;10.75;;;;;-147.17;100.00;49666.88;5027576;28;51161;-61
2021/11/20 01:27:50;;;;;;;;;12.25;12.25;;;;;-147.17;100.00;49678.69;5026779;28;51387;-59
2021/11/20 01:30:15;;;;;;;;;9.50;8.50;;;;;-147.17;100.00;49727.91;5026737;28;51871;-60
2021/11/20 01:32:42;;;;;;;;;16.00;15.50;;;;;-147.17;100.00;49712.16;5026647;28;51253;-60
2021/11/20 01:35:08;;;;;;;;;17.00;15.00;;;;;-147.17;100.00;49684.59;5023716;28;53513;-59
2021/11/20 01:37:36;;;;;;;;;16.75;16.00;;;;;-147.17;100.00;49714.13;5021232;28;51429;-60
2021/11/20 01:40:06;;;;;;;;;16.75;16.00;;;;;-147.17;100.00;49714.13;5025133;28;52051;-59
2021/11/20 01:42:31;;;;;;;;;14.25;12.00;;;;;-147.17;100.00;49712.16;5026029;28;51216;-61
2021/11/20 01:45:28;;;;;;;;;19.25;17.00;;;;;-147.17;100.00;49753.50;5024865;28;51234;-60
2021/11/20 01:48:12;;;;;;;;;20.75;19.50;;;;;-147.17;100.00;49743.66;5026246;28;51357;-63
2021/11/20 01:50:40;;;;;;;;;20.75;19.75;;;;;-147.17;100.00;49757.44;5022340;28;51173;-60
2021/11/20 01:53:19;;;;;;;;;20.50;18.25;;;;;-147.17;100.00;49798.75;5021182;28;51317;-61
2021/11/20 01:55:56;;;;;;;;;17.25;16.00;;;;;-147.17;100.00;49753.50;5020562;28;51256;-62
2021/11/20 01:58:34;;;;;;;;;20.00;17.75;;;;;-147.17;100.00;49779.09;5024153;28;51233;-61
2021/11/20 02:01:08;;;;;;;;;22.75;22.25;;;;;-147.17;100.00;49755.47;5023554;28;52816;-60
2021/11/20 02:04:18;;;;;;;;;18.50;17.75;;;;;-147.17;100.00;49806.63;5020269;28;51759;-61
2021/11/20 02:06:59;;;;;;;;;21.00;19.00;;;;;-147.17;100.00;49790.88;4976976;28;51230;-63
2021/11/20 02:09:31;;;;;;;;;20.50;19.00;;;;;-147.17;100.00;49824.34;5021888;28;51111;-60
2021/11/20 02:12:10;;;;;;;;;20.00;15.25;;;;;-147.17;100.00;49875.53;5021212;28;52758;-61
2021/11/20 02:14:36;;;;;;;;;21.25;20.00;;;;;-147.17;100.00;49824.34;5024065;28;53185;-63
2021/11/20 02:17:08;;;;;;;;;15.75;14.50;;;;;-147.17;100.00;49842.06;5023330;28;51321;-65
2021/11/20 02:19:37;;;;;;;;;21.25;19.25;;;;;-147.17;100.00;49828.28;5027189;28;51140;-61
2021/11/20 02:22:12;;;;;;;;;20.25;19.75;;;;;-147.17;100.00;49808.59;5041574;28;53184;-60
2021/11/20 02:24:37;;;;;;;;;21.75;18.00;;;;;-147.17;100.00;49828.28;5022972;28;51327;-63
2021/11/20 02:27:07;;;;;;;;;23.50;20.50;;;;;-147.17;100.00;49838.13;5024276;28;63659;-62
2021/11/20 02:29:42;;;;;;;;;18.25;17.00;;;;;-147.17;100.00;49824.34;5025733;28;51137;-60
2021/11/20 02:32:09;;;;;;;;;17.50;17.00;;;;;-147.17;100.00;49836.16;5019450;28;52411;-63
2021/11/20 02:34:35;;;;;;;;;17.50;16.00;;;;;-147.17;100.00;49806.63;5021545;28;51388;-62
2021/11/20 02:37:00;;;;;;;;;20.25;20.00;;;;;-147.17;100.00;49849.94;5022688;28;51296;-61
2021/11/20 02:39:30;;;;;;;;;22.00;21.25;;;;;-147.17;100.00;49828.28;5035461;28;51314;-60
2021/11/20 02:41:58;;;;;;;;;23.00;20.25;;;;;-147.17;100.00;49846.00;5021493;28;51009;-60
2021/11/20 02:44:26;;;;;;;;;21.75;18.25;;;;;-147.17;100.00;49840.09;5020326;28;51188;-61
2021/11/20 02:46:59;;;;;;;;;20.75;18.25;;;;;-147.17;100.00;49830.25;5026000;28;51318;-62
2021/11/20 02:49:26;;;;;;;;;20.75;17.75;;;;;-147.17;100.00;49806.63;5023274;28;51226;-61
2021/11/20 02:52:02;;;;;;;;;22.25;19.00;;;;;-147.17;100.00;49826.31;5032516;28;51342;-61
2021/11/20 02:54:29;;;;;;;;;21.50;19.00;;;;;-147.17;100.00;49834.19;5033029;28;51059;-61
2021/11/20 02:57:05;;;;;;;;;18.67;16.00;;;;;-147.17;100.00;49863.72;5032086;28;50951;-60
2021/11/20 02:59:30;;;;;;;;;16.00;16.00;;;;;-147.17;100.00;49887.34;5018805;28;50965;-60
2021/11/20 03:01:56;;;;;;;;;21.50;17.00;;;;;-147.17;100.00;49873.56;5029301;28;51134;-61
2021/11/20 03:04:23;;;;;;;;;17.00;16.25;;;;;-147.17;100.00;49881.44;5027415;28;51141;-61
2021/11/20 03:06:51;;;;;;;;;16.00;14.33;;;;;-147.17;100.00;49863.72;5048562;28;51107;-60
2021/11/20 03:09:16;;;;;;;;;16.50;14.75;;;;;-147.17;100.00;49869.63;5019152;28;51368;-60
2021/11/20 03:11:43;;;;;;;;;13.25;12.00;;;;;-147.17;100.00;49920.81;5033479;28;51025;-60
2021/11/20 03:14:11;;;;;;;;;16.25;15.25;;;;;-147.17;100.00;49889.31;5033560;28;51064;-60
2021/11/20 03:16:40;;;;;;;;;18.25;15.50;;;;;-147.17;100.00;49910.97;5030552;28;51116;-61
2021/11/20 03:19:06;;;;;;;;;16.75;15.25;;;;;-147.17;100.00;49883.41;5033828;28;51272;-61
2021/11/20 03:21:33;;;;;;;;;15.25;14.00;;;;;-147.17;100.00;49910.97;5028768;28;51716;-61
2021/11/20 03:24:01;;;;;;;;;10.00;10.00;;;;;-147.17;100.00;49895.22;5033389;28;51018;-61
2021/11/20 03:26:27;;;;;;;;;15.00;14.00;;;;;-147.17;100.00;49930.63;5032508;28;51022;-61
2021/11/20 03:28:52;;;;;;;;;15.67;13.33;;;;;-147.17;100.00;49930.63;5031651;28;51045;-60
2021/11/20 03:31:19;;;;;;;;;11.00;9.33;;;;;-147.17;100.00;49912.94;5026114;28;51592;-60
2021/11/20 03:33:45;;;;;;;;;11.00;11.00;;;;;-147.17;100.00;49942.44;5019959;28;51150;-61
2021/11/20 03:36:11;;;;;;;;;10.33;10.00;;;;;-147.17;100.00;49942.44;5031652;28;51146;-60
2021/11/20 03:38:37;;;;;;;;;8.67;8.33;;;;;-147.17;100.00;49956.22;5016570;28;51252;-61
2021/11/20 03:41:03;;;;;;;;;7.67;7.33;;;;;-147.17;100.00;49934.56;5029171;28;51571;-61
2021/11/20 03:43:28;;;;;;;;;10.33;10.33;;;;;-147.17;100.00;49922.78;5032160;28;50991;-61
2021/11/20 03:45:53;;;;;;;;;7.00;7.00;;;;;-147.17;100.00;49942.44;5026701;28;51004;-60
2021/11/20 03:48:20;;;;;;;;;9.33;8.00;;;;;-147.17;100.00;49938.50;5031939;28;50960;-60
2021/11/20 03:50:47;;;;;;;;;7.00;5.33;;;;;-147.17;100.00;49970.00;5031131;28;52006;-60
2021/11/20 03:53:13;;;;;;;;;4.00;4.00;;;;;-147.17;100.00;50001.50;5031543;28;51086;-60
2021/11/20 03:55:42;;;;;;;;;5.00;5.00;;;;;-147.17;100.00;49968.03;5025374;28;51143;-60
2021/11/20 03:58:09;;;;;;;;;5.33;4.67;;;;;-147.17;100.00;49964.09;5032648;28;51026;-60
2021/11/20 04:00:45;;;;;;;;;4.00;4.00;;;;;-147.17;100.00;50009.38;5032471;28;52327;-61
2021/11/20 04:03:12;;;;;;;;;5.33;5.33;;;;;-147.17;100.00;49971.97;5026317;28;50891;-60
2021/11/20 04:05:38;;;;;;;;;5.00;3.67;;;;;-147.17;100.00;50005.44;5031633;28;51002;-60
2021/11/20 04:08:04;;;;;;;;;3.33;3.00;;;;;-147.17;100.00;50005.44;5020604;28;51291;-62
2021/11/20 04:10:30;;;;;;;;;4.00;4.00;;;;;-147.17;100.00;49977.88;5032495;28;51739;-60
2021/11/20 04:12:55;;;;;;;;;3.67;3.33;;;;;-147.17;100.00;49966.06;5032494;28;51006;-60
2021/11/20 04:15:25;;;;;;;;;4.00;4.00;;;;;-147.17;100.00;49981.81;5032744;28;51229;-60
2021/11/20 04:17:50;;;;;;;;;4.33;3.67;;;;;-147.17;100.00;50036.94;5015407;28;50893;-61
2021/11/20 04:20:18;;;;;;;;;7.00;5.67;;;;;-147.17;100.00;50009.38;5020315;28;51653;-61
2021/11/20 04:22:45;;;;;;;;;4.00;3.25;;;;;-147.17;100.00;49981.81;5031015;28;51039;-61
2021/11/20 04:25:13;;;;;;;;;4.00;3.67;;;;;-147.17;100.00;49981.81;5030939;28;51676;-62
2021/11/20 04:27:39;;;;;;;;;4.00;4.00;;;;;-147.17;100.00;49977.88;5019424;28;50986;-61
2021/11/20 04:30:07;;;;;;;;;5.33;5.33;;;;;-147.17;100.00;50021.19;5028886;28;52991;-60
2021/11/20 04:32:33;;;;;;;;;7.33;7.33;;;;;-147.17;100.00;49977.88;5018444;28;50952;-62
2021/11/20 04:34:58;;;;;;;;;7.00;6.33;;;;;-147.17;100.00;49989.69;5020688;28;51198;-62
2021/11/20 04:37:24;;;;;;;;;7.00;5.33;;;;;-147.17;100.00;50001.50;5032203;28;51334;-61
2021/11/20 04:39:49;;;;;;;;;6.33;6.33;;;;;-147.17;100.00;50001.50;5032105;28;51803;-62
2021/11/20 04:42:16;;;;;;;;;3.33;3.33;;;;;-147.17;100.00;50017.25;5030137;28;51305;-61
2021/11/20 04:44:42;;;;;;;;;4.00;4.00;;;;;-147.17;100.00;50009.38;5030905;28;51155;-62
2021/11/20 04:47:07;;;;;;;;;3.00;2.00;;;;;-147.17;100.00;50011.34;5032475;28;50963;-62
2021/11/20 04:49:33;;;;;;;;;3.00;2.00;;;;;-147.17;100.00;49997.56;5031570;28;51225;-62
2021/11/20 04:51:58;;;;;;;;;5.33;4.00;;;;;-147.17;100.00;49989.69;5012784;28;51111;-62
2021/11/20 04:54:24;;;;;;;;;4.00;3.00;;;;;-147.17;100.00;50040.88;5024499;28;51326;-62
2021/11/20 04:56:49;;;;;;;;;1.67;1.00;;;;;-147.17;100.00;50046.78;5032321;28;51126;-62
2021/11/20 04:59:14;;;;;;;;;2.33;2.33;;;;;-147.17;100.00;50027.09;5031531;28;50958;-62
2021/11/20 05:01:40;;;;;;;;;2.00;2.00;;;;;-147.17;100.00;50042.84;5031564;28;51039;-62
2021/11/20 05:04:06;;;;;;;;;1.33;1.33;;;;;-147.17;100.00;50044.81;5035637;28;51099;-62
2021/11/20 05:06:33;;;;;;;;;2.00;1.00;;;;;-147.17;100.00;50052.69;5033770;28;51384;-62
2021/11/20 05:08:59;;;;;;;;;2.00;2.00;;;;;-147.17;100.00;50019.22;5034895;28;50955;-62
2021/11/20 05:11:27;;;;;;;;;3.00;2.00;;;;;-147.17;100.00;50021.19;5032187;28;51213;-62
2021/11/20 05:13:52;;;;;;;;;3.00;2.00;;;;;-147.17;100.00;50048.75;5035740;28;51082;-60
2021/11/20 05:16:18;;;;;;;;;4.33;3.00;;;;;-147.17;100.00;50044.81;5033913;28;51296;-60
2021/11/20 05:18:44;;;;;;;;;3.33;3.00;;;;;-147.17;100.00;50031.03;5035044;28;51629;-61
2021/11/20 05:21:13;;;;;;;;;4.00;4.00;;;;;-147.17;100.00;50064.50;5030433;28;51205;-63
2021/11/20 05:23:40;;;;;;;;;3.33;2.67;;;;;-147.17;100.00;50064.50;5030005;28;51106;-62
2021/11/20 05:26:07;;;;;;;;;3.00;3.00;;;;;-147.17;100.00;50044.81;5032789;28;51122;-62
2021/11/20 05:28:33;;;;;;;;;6.33;4.00;;;;;-147.17;100.00;50044.81;5046683;28;53580;-62
2021/11/20 05:31:00;;;;;;;;;3.67;3.00;;;;;-147.17;100.00;50044.81;5033249;28;50944;-61
2021/11/20 05:33:52;;;;;;;;;5.00;4.00;;;;;-147.17;100.00;50007.41;5026396;28;50945;-61
2021/11/20 05:36:20;;;;;;;;;2.00;2.00;;;;;-147.17;100.00;50017.25;5031726;28;51383;-61
2021/11/20 05:38:46;;;;;;;;;4.33;4.00;;;;;-147.17;100.00;50021.19;5030846;28;52778;-61
2021/11/20 05:41:12;;;;;;;;;4.67;3.00;;;;;-147.17;100.00;50048.75;5031634;28;51001;-61
2021/11/20 05:43:38;;;;;;;;;6.00;4.00;;;;;-147.17;100.00;50052.69;5035415;28;50891;-62
2021/11/20 05:46:10;;;;;;;;;3.33;3.33;;;;;-147.17;100.00;50052.69;5034872;28;51319;-61
2021/11/20 05:48:35;;;;;;;;;7.00;3.33;;;;;-147.17;100.00;50036.94;5034229;28;50989;-62
2021/11/20 05:51:00;;;;;;;;;3.00;3.00;;;;;-147.17;100.00;50044.81;5033128;28;51107;-62
2021/11/20 05:53:26;;;;;;;;;3.00;3.00;;;;;-147.17;100.00;50040.88;5018182;28;51110;-62
2021/11/20 05:55:54;;;;;;;;;6.00;4.67;;;;;-147.17;100.00;50064.50;5029493;28;50864;-62
2021/11/20 05:58:20;;;;;;;;;4.50;3.50;;;;;-147.17;100.00;50056.63;5034415;28;52846;-62
2021/11/20 06:00:52;;;;;;;;;3.33;3.00;;;;;-147.17;100.00;50076.31;5034041;28;50979;-63
2021/11/20 06:03:20;;;;;;;;;4.00;3.33;;;;;-147.17;100.00;50080.25;5033056;28;50937;-62
2021/11/20 06:05:46;;;;;;;;;3.33;3.33;;;;;-147.17;100.00;50060.56;5033382;28;51010;-61
2021/11/20 06:08:13;;;;;;;;;9.00;7.00;;;;;-147.17;100.00;50025.13;5031402;28;51797;-61
2021/11/20 06:10:40;;;;;;;;;4.00;4.00;;;;;-147.17;100.00;50044.81;5029721;28;51100;-61
2021/11/20 06:13:10;;;;;;;;;6.33;6.00;;;;;-147.17;100.00;50060.56;5027895;28;51181;-61
2021/11/20 06:15:36;;;;;;;;;7.00;7.00;;;;;-147.17;100.00;50042.84;5029555;28;51125;-62
2021/11/20 06:18:03;;;;;;;;;4.67;4.67;;;;;-147.17;100.00;50070.41;5034168;28;51873;-62
2021/11/20 06:20:29;;;;;;;;;7.00;7.00;;;;;-147.17;100.00;50044.81;5027622;28;51145;-61
2021/11/20 06:22:55;;;;;;;;;4.00;4.00;;;;;-147.17;100.00;50060.56;5016162;28;51005;-62
2021/11/20 06:25:21;;;;;;;;;6.00;4.33;;;;;-147.17;100.00;50009.38;5023240;28;50958;-63
2021/11/20 06:27:47;;;;;;;;;7.00;7.00;;;;;-147.17;100.00;50066.47;5034493;28;51750;-62
2021/11/20 06:30:20;;;;;;;;;8.25;7.25;;;;;-147.17;100.00;50054.66;5030874;28;51182;-62
2021/11/20 06:32:47;;;;;;;;;8.33;4.33;;;;;-147.17;100.00;50023.16;5034328;28;50947;-62
2021/11/20 06:35:17;;;;;;;;;7.00;6.00;;;;;-147.17;100.00;50040.88;5034097;28;51343;-62
2021/11/20 06:37:44;;;;;;;;;8.50;7.75;;;;;-147.17;100.00;50056.63;5025962;28;52891;-62
2021/11/20 06:40:17;;;;;;;;;8.75;8.00;;;;;-147.17;100.00;50034.97;5032661;28;50955;-62
2021/11/20 06:42:43;;;;;;;;;8.00;6.67;;;;;-147.17;100.00;50044.81;5027687;28;51206;-62
2021/11/20 06:45:12;;;;;;;;;9.00;8.25;;;;;-147.17;100.00;50062.53;5026280;28;50933;-62
2021/11/20 06:47:37;;;;;;;;;13.00;10.67;;;;;-147.17;100.00;50009.38;5026704;28;51524;-61
2021/11/20 06:50:04;;;;;;;;;9.00;9.00;;;;;-147.17;100.00;50068.44;5021584;28;51151;-61
2021/11/20 06:52:29;;;;;;;;;7.50;6.75;;;;;-147.17;100.00;50033.00;5017512;28;51127;-61
2021/11/20 06:54:55;;;;;;;;;11.75;9.00;;;;;-147.17;100.00;50021.19;5025415;28;51265;-61
2021/11/20 06:57:55;;;;;;;;;13.75;11.50;;;;;-147.17;100.00;50025.13;5029267;28;51888;-61
2021/11/20 07:00:26;;;;;;;;;13.00;10.00;;;;;-147.17;100.00;50023.16;5028159;28;51043;-62
2021/11/20 07:02:58;;;;;;;;;13.75;13.00;;;;;-147.17;100.00;50029.06;5032320;28;51114;-63
2021/11/20 07:05:25;;;;;;;;;14.00;11.75;;;;;-147.17;100.00;50023.16;5024578;28;51279;-62
2021/11/20 07:07:52;;;;;;;;;15.50;12.00;;;;;-147.17;100.00;50011.34;5033329;28;51101;-62
2021/11/20 07:10:21;;;;;;;;;13.75;11.75;;;;;-147.17;100.00;50033.00;5032654;28;51075;-62
2021/11/20 07:12:47;;;;;;;;;14.67;12.33;;;;;-147.17;100.00;50031.03;5032559;28;50872;-64
2021/11/20 07:15:12;;;;;;;;;15.00;12.50;;;;;-147.17;100.00;50017.25;5048894;28;51060;-62
2021/11/20 07:17:38;;;;;;;;;19.75;15.50;;;;;-147.17;100.00;50058.59;5017412;28;50892;-62
2021/11/20 07:20:04;;;;;;;;;16.00;14.75;;;;;-147.17;100.00;49997.56;5016863;28;51231;-62
2021/11/20 07:22:30;;;;;;;;;14.50;13.00;;;;;-147.17;100.00;50033.00;5018425;28;51224;-62
2021/11/20 07:24:55;;;;;;;;;15.00;11.67;;;;;-147.17;100.00;50025.13;5017794;28;52898;-62
2021/11/20 07:27:21;;;;;;;;;14.75;11.25;;;;;-147.17;100.00;50034.97;5033627;28;51118;-62
2021/11/20 07:29:46;;;;;;;;;12.00;12.00;;;;;-147.17;100.00;50064.50;5031936;28;51111;-61
2021/11/20 07:32:12;;;;;;;;;10.33;8.33;;;;;-147.17;100.00;50068.44;5029989;28;51142;-63
2021/11/20 07:34:37;;;;;;;;;10.00;9.00;;;;;-147.17;100.00;50009.38;5031335;28;51056;-61
2021/11/20 07:37:03;;;;;;;;;12.33;10.33;;;;;-147.17;100.00;50062.53;5030010;28;52022;-63
2021/11/20 07:39:29;;;;;;;;;11.67;10.33;;;;;-147.17;100.00;50040.88;5032684;28;51119;-62
2021/11/20 07:41:54;;;;;;;;;8.67;8.00;;;;;-147.17;100.00;50034.97;5032875;28;50911;-62
2021/11/20 07:44:19;;;;;;;;;10.00;8.67;;;;;-147.17;100.00;50074.34;5033326;28;51094;-62
2021/11/20 07:46:45;;;;;;;;;9.00;9.00;;;;;-147.17;100.00;50029.06;5030877;28;54200;-64
2021/11/20 07:49:11;;;;;;;;;11.67;8.00;;;;;-147.17;100.00;50080.25;5030684;28;51117;-61
2021/11/20 07:51:36;;;;;;;;;10.00;10.00;;;;;-147.17;100.00;50046.78;5030223;28;50974;-62
2021/11/20 07:54:02;;;;;;;;;13.00;11.33;;;;;-147.17;100.00;50046.78;5033329;28;51042;-62
2021/11/20 07:56:29;;;;;;;;;13.33;13.00;;;;;-147.17;100.00;50064.50;5032547;28;51704;-62
2021/11/20 07:58:55;;;;;;;;;10.00;9.00;;;;;-147.17;100.00;50044.81;5032936;28;51182;-61
2021/11/20 08:01:23;;;;;;;;;6.00;6.00;;;;;-147.17;100.00;50082.22;5030315;28;51060;-62
2021/11/20 08:03:50;;;;;;;;;10.67;7.00;;;;;-147.17;100.00;50072.38;5031627;28;51096;-62
2021/11/20 08:06:15;;;;;;;;;8.00;6.67;;;;;-147.17;100.00;50074.34;5027535;28;52019;-62
2021/11/20 08:08:40;;;;;;;;;4.00;4.00;;;;;-147.17;100.00;50040.88;5032866;28;51084;-61
2021/11/20 08:11:06;;;;;;;;;8.67;8.00;;;;;-147.17;100.00;50084.19;5032418;28;51417;-62
2021/11/20 08:13:35;;;;;;;;;5.67;5.67;;;;;-147.17;100.00;50090.09;5029161;28;51129;-62
2021/11/20 08:16:00;;;;;;;;;7.00;5.33;;;;;-147.17;100.00;50090.09;5019299;28;51156;-61
2021/11/20 08:18:26;;;;;;;;;5.33;5.33;;;;;-147.17;100.00;50056.63;5032491;28;51032;-62
2021/11/20 08:20:51;;;;;;;;;7.00;6.33;;;;;-147.17;100.00;50072.38;5025394;28;51221;-62
2021/11/20 08:23:17;;;;;;;;;8.67;7.00;;;;;-147.17;100.00;50056.63;5032705;28;50991;-62
2021/11/20 08:25:45;;;;;;;;;4.67;4.67;;;;;-147.17;100.00;50084.19;5031750;28;51202;-62
2021/11/20 08:28:14;;;;;;;;;3.33;2.00;;;;;-147.17;100.00;50072.38;5033272;28;50974;-62
2021/11/20 08:30:41;;;;;;;;;8.67;7.67;;;;;-147.17;100.00;50088.13;5032289;28;50994;-62
2021/11/20 08:33:07;;;;;;;;;6.00;5.50;;;;;-147.17;100.00;50054.66;5026302;28;51454;-62
2021/11/20 08:35:35;;;;;;;;;8.00;8.00;;;;;-147.17;100.00;50084.19;5033050;28;52779;-62
2021/11/20 08:38:03;;;;;;;;;9.33;7.00;;;;;-147.17;100.00;50068.44;5031530;28;51150;-62
2021/11/20 08:40:31;;;;;;;;;8.33;6.33;;;;;-147.17;100.00;50095.97;5034277;28;51176;-63
2021/11/20 08:42:58;;;;;;;;;14.33;13.00;;;;;-147.17;100.00;50080.25;5034958;28;51132;-61
2021/11/20 08:45:27;;;;;;;;;8.67;8.67;;;;;-147.17;100.00;50048.75;5034290;28;51015;-61
2021/11/20 08:47:53;;;;;;;;;9.67;9.67;;;;;-147.17;100.00;50084.19;5035657;28;51152;-61
2021/11/20 08:50:47;;;;;;;;;13.25;11.25;;;;;-147.17;100.00;50058.59;5032875;28;51447;-61
2021/11/20 08:53:13;;;;;;;;;14.25;12.00;;;;;-147.17;100.00;50064.50;5031104;28;51114;-61
2021/11/20 08:55:39;;;;;;;;;14.75;11.25;;;;;-147.17;100.00;50068.44;5035157;28;51646;-62
2021/11/20 08:58:06;;;;;;;;;16.25;12.50;;;;;-147.17;100.00;50084.19;5017697;28;51045;-61
2021/11/20 09:00:39;;;;;;;;;13.33;10.33;;;;;-147.17;100.00;50113.69;5028973;28;51298;-62
2021/11/20 09:03:11;;;;;;;;;16.00;13.25;;;;;-147.17;100.00;50042.84;5028691;28;51162;-63
2021/11/20 09:06:00;;;;;;;;;13.67;12.33;;;;;-147.17;100.00;50044.81;5022958;28;51810;-64
2021/11/20 09:08:28;;;;;;;;;10.00;9.00;;;;;-147.17;100.00;50025.13;5035025;28;51092;-63
2021/11/20 09:11:00;;;;;;;;;13.00;12.00;;;;;-147.17;100.00;50025.13;5035097;28;50951;-63
2021/11/20 09:13:34;;;;;;;;;9.00;9.00;;;;;-147.17;100.00;50056.63;5022385;28;50955;-64
2021/11/20 09:16:25;;;;;;;;;13.50;10.25;;;;;-147.17;100.00;50021.19;5031747;28;51072;-64
2021/11/20 09:18:51;;;;;;;;;12.50;9.25;;;;;-147.17;100.00;50072.38;5025171;28;50884;-63
2021/11/20 09:21:17;;;;;;;;;13.25;12.50;;;;;-147.17;100.00;50058.59;5033484;28;51118;-64
2021/11/20 09:23:44;;;;;;;;;10.33;9.33;;;;;-147.17;100.00;50050.72;5032274;28;50925;-63
2021/11/20 09:26:10;;;;;;;;;13.00;11.50;;;;;-147.17;100.00;50005.44;5034852;28;52203;-63
2021/11/20 09:28:36;;;;;;;;;12.75;10.50;;;;;-147.17;100.00;50080.25;5048948;28;51001;-62
2021/11/20 09:31:04;;;;;;;;;16.75;14.75;;;;;-147.17;100.00;50042.84;5034870;28;51227;-63
2021/11/20 09:33:30;;;;;;;;;10.00;10.00;;;;;-147.17;100.00;50036.94;5023041;28;51110;-63
2021/11/20 09:35:55;;;;;;;;;14.25;12.00;;;;;-147.17;100.00;50095.97;5028300;28;51106;-64
2021/11/20 09:38:23;;;;;;;;;8.50;7.75;;;;;-147.17;100.00;50060.56;5032049;28;51007;-64
2021/11/20 09:40:53;;;;;;;;;14.25;13.50;;;;;-147.17;100.00;50074.34;5033683;28;51212;-61
2021/11/20 09:43:25;;;;;;;;;10.67;10.00;;;;;-147.17;100.00;50088.13;5030355;28;51251;-60
2021/11/20 09:46:01;;;;;;;;;12.00;10.50;;;;;-147.17;100.00;50048.75;5025675;28;51389;-60
2021/11/20 09:48:35;;;;;;;;;19.75;15.25;;;;;-147.17;100.00;50042.84;5031920;28;51117;-62
2021/11/20 09:51:32;;;;;;;;;10.00;9.75;;;;;-147.17;100.00;50072.38;5033090;28;51263;-60
2021/11/20 09:54:03;;;;;;;;;15.75;15.00;;;;;-147.17;100.00;50076.31;5032985;28;51154;-60
2021/11/20 09:56:36;;;;;;;;;10.00;9.75;;;;;-147.17;100.00;50072.38;5031915;28;53871;-60
2021/11/20 09:59:07;;;;;;;;;10.00;9.33;;;;;-147.17;100.00;50072.38;5033014;28;51172;-60
2021/11/20 10:01:50;;;;;;;;;9.33;9.33;;;;;-147.17;100.00;50050.72;5032033;28;51093;-60
2021/11/20 10:04:22;;;;;;;;;12.50;11.25;;;;;-147.17;100.00;50048.75;5034080;28;51060;-60
2021/11/20 10:06:52;;;;;;;;;10.50;10.50;;;;;-147.17;100.00;50068.44;5032781;28;51785;-61
2021/11/20 10:09:20;;;;;;;;;13.50;11.25;;;;;-147.17;100.00;50088.13;5032136;28;51148;-60
2021/11/20 10:11:58;;;;;;;;;14.75;14.75;;;;;-147.17;100.00;50099.91;5033707;28;51151;-61
2021/11/20 10:14:44;;;;;;;;;13.25;9.75;;;;;-147.17;100.00;50101.88;5034024;28;51114;-60
2021/11/20 10:17:42;;;;;;;;;10.00;9.33;;;;;-147.17;100.00;50109.75;5032899;28;51128;-60
2021/11/20 10:20:16;;;;;;;;;14.00;13.33;;;;;-147.17;100.00;50090.09;5033879;28;51101;-60
2021/11/20 10:23:15;;;;;;;;;10.50;10.00;;;;;-147.17;100.00;50115.66;5026358;28;51366;-60
2021/11/20 10:26:19;;;;;;;;;13.75;12.75;;;;;-147.17;100.00;50076.31;5023800;28;51912;-59
2021/11/20 10:29:26;;;;;;;;;22.75;17.25;;;;;-147.17;100.00;50103.84;5033583;28;51775;-60
2021/11/20 10:32:07;;;;;;;;;15.50;14.75;;;;;-147.17;100.00;50078.28;5030684;28;51091;-61
2021/11/20 10:34:45;;;;;;;;;15.00;14.00;;;;;-147.17;100.00;50094.00;5021540;28;51166;-61
2021/11/20 10:37:26;;;;;;;;;17.67;14.00;;;;;-147.17;100.00;50064.50;5019549;28;51999;-61
2021/11/20 10:40:00;;;;;;;;;16.50;16.00;;;;;-147.17;100.00;50115.66;5016621;28;52006;-62
2021/11/20 10:42:39;;;;;;;;;15.50;15.50;;;;;-147.17;100.00;50082.22;5033347;28;51090;-59
2021/11/20 10:45:17;;;;;;;;;16.00;15.00;;;;;-147.17;100.00;50097.94;5031597;28;50898;-59
2021/11/20 10:47:51;;;;;;;;;13.67;13.00;;;;;-147.17;100.00;50058.59;5026231;28;51031;-60
2021/11/20 10:50:22;;;;;;;;;10.50;10.50;;;;;-147.17;100.00;50092.03;5019280;28;50955;-60
2021/11/20 10:52:48;;;;;;;;;15.00;15.00;;;;;-147.17;100.00;50080.25;5032357;28;50990;-60
2021/11/20 10:56:00;;;;;;;;;16.00;15.75;;;;;-147.17;100.00;50086.16;5023225;28;51003;-59
2021/11/20 10:58:44;;;;;;;;;26.25;19.75;;;;;-147.17;100.00;50090.09;5001133;28;51043;-59
2021/11/20 11:01:24;;;;;;;;;19.75;19.75;;;;;-147.17;100.00;50074.34;5029142;28;51286;-60
2021/11/20 11:04:21;;;;;;;;;13.00;10.50;;;;;-147.17;100.00;50044.81;5032991;28;50881;-60
2021/11/20 11:06:58;;;;;;;;;17.25;14.00;;;;;-147.17;100.00;50068.44;5031958;28;50931;-61
2021/11/20 11:09:32;;;;;;;;;15.67;14.33;;;;;-147.17;100.00;50105.81;5032396;28;51163;-60
2021/11/20 11:12:02;;;;;;;;;20.50;18.00;;;;;-147.17;100.00;50123.53;5032208;28;50886;-60